Candor, North Carolina
Current Conditions -  °F | °C
As of 10:55 PM on Friday 28 Nov 2014 (Local Time) from KSOP Reporting Station
Clear Clear  
Wind Chill: -5°   Ceiling: Unl
Heat Index: -5°   Visibility: 10mi
Dew Point: -31°   Wind: 0mph
Humidity: 12%   Direction: NA
Pressure: 30.3"   Gusts: NA
Location:  35.3°N, 79.75°W
Report Text: KSOP 290355Z AUTO 00000KT 10SM CLR M05/M31 A3030 RMK AO1
Loading
Personal Weather Stations






























Interactive Weather Map New forecast layout! Learn more

10-Day Weather Forecast

Advertisements
Track Severe Weather on mobile